createdAt,value
2016-12-29T00:00:28.771Z,54.61
2016-12-29T00:01:38.249Z,55.64
2016-12-29T00:02:47.319Z,56.51
2016-12-29T00:03:56.421Z,57.34
2016-12-29T00:05:05.520Z,57.5
2016-12-29T00:06:14.609Z,58.27
2016-12-29T00:07:23.713Z,59.01
2016-12-29T00:08:32.814Z,59.39
2016-12-29T00:09:41.512Z,60.03
2016-12-29T00:10:51.375Z,60.03
2016-12-29T00:12:00.081Z,61.15
2016-12-29T00:13:09.162Z,61.44
2016-12-29T00:14:17.878Z,61.6
2016-12-29T00:15:27.346Z,62.65
2016-12-29T00:16:36.418Z,62.43
2016-12-29T00:17:45.495Z,63
2016-12-29T00:18:54.201Z,63.45
2016-12-29T00:20:03.663Z,63.45
2016-12-29T00:21:13.527Z,63.26
2016-12-29T00:22:22.991Z,63.7
2016-12-29T00:23:32.467Z,63.7
2016-12-29T00:24:41.941Z,63.99
2016-12-29T00:25:51.403Z,64.28
2016-12-29T00:27:00.505Z,63.57
2016-12-29T00:28:09.204Z,64.05
2016-12-29T00:29:17.892Z,63.86
2016-12-29T00:30:26.971Z,64.25
2016-12-29T00:31:36.043Z,64.53
2016-12-29T00:32:44.719Z,64.4
2016-12-29T00:33:53.812Z,64.12
2016-12-29T00:35:02.881Z,64.21
2016-12-29T00:36:11.972Z,64.31
2016-12-29T00:37:21.060Z,64.02
2016-12-29T00:38:30.116Z,63.92
2016-12-29T00:39:39.214Z,63.64
2016-12-29T00:40:47.899Z,63.45
2016-12-29T00:41:56.590Z,62.88
2016-12-29T00:43:05.675Z,62.49
2016-12-29T00:44:15.140Z,62.43
2016-12-29T00:45:23.828Z,62.02
2016-12-29T00:46:32.895Z,61.54
2016-12-29T00:47:42.366Z,61.66
2016-12-29T00:48:51.463Z,61.38
2016-12-29T00:50:00.528Z,60.9
2016-12-29T00:51:10.004Z,61
2016-12-29T00:52:19.477Z,60.9
2016-12-29T00:53:28.552Z,61.07
2016-12-29T00:54:37.269Z,60.87
2016-12-29T00:55:45.952Z,60.58
2016-12-29T00:56:54.628Z,60.97
2016-12-29T00:58:03.321Z,60.68
2016-12-29T00:59:12.805Z,60.49
2016-12-29T01:00:21.893Z,60.39
2016-12-29T01:01:30.575Z,60.21
2016-12-29T01:02:40.073Z,60.02
2016-12-29T01:03:50.300Z,59.63
2016-12-29T01:04:58.983Z,59.82
2016-12-29T01:06:08.066Z,60.68
2016-12-29T01:07:17.130Z,60.39
2016-12-29T01:08:26.216Z,60.94
2016-12-29T01:09:35.315Z,60.94
2016-12-29T01:10:44.780Z,60.75
2016-12-29T01:11:53.449Z,60.75
2016-12-29T01:13:02.928Z,60.65
2016-12-29T01:14:11.996Z,60.75
2016-12-29T01:15:21.802Z,60.84
2016-12-29T01:16:30.902Z,60.46
2016-12-29T01:17:40.363Z,60.27
2016-12-29T01:18:49.079Z,59.99
2016-12-29T01:19:58.165Z,59.99
2016-12-29T01:21:06.858Z,59.6
2016-12-29T01:22:15.925Z,59.6
2016-12-29T01:23:25.000Z,59.99
2016-12-29T01:24:33.667Z,59.6
2016-12-29T01:25:42.743Z,60.17
2016-12-29T01:26:51.821Z,59.6
2016-12-29T01:28:01.291Z,59.99
2016-12-29T01:29:10.397Z,60.17
2016-12-29T01:30:19.068Z,59.89
2016-12-29T01:31:28.536Z,59.41
2016-12-29T01:32:37.994Z,59.31
2016-12-29T01:33:46.683Z,58.65
2016-12-29T01:34:55.791Z,59.22
2016-12-29T01:36:04.460Z,59.51
2016-12-29T01:37:13.145Z,59.31
2016-12-29T01:38:22.219Z,59.67
2016-12-29T01:39:31.694Z,59.19
2016-12-29T01:40:40.372Z,59.19
2016-12-29T01:41:49.444Z,59.19
2016-12-29T01:42:58.510Z,58.62
2016-12-29T01:44:07.573Z,58.62
2016-12-29T01:45:16.282Z,59.28
2016-12-29T01:46:25.345Z,58.91
2016-12-29T01:47:34.804Z,59.48
2016-12-29T01:48:43.478Z,59.48
2016-12-29T01:49:52.584Z,59.76
2016-12-29T01:51:01.263Z,59.86
2016-12-29T01:52:10.327Z,59.48
2016-12-29T01:53:19.393Z,59
2016-12-29T01:54:28.095Z,59.19
2016-12-29T01:55:37.575Z,59.28
2016-12-29T01:56:47.039Z,58.62
2016-12-29T01:57:56.107Z,58.91
2016-12-29T01:59:05.963Z,58.14
2016-12-29T02:00:14.642Z,58.14
2016-12-29T02:01:23.314Z,57.95
2016-12-29T02:02:32.005Z,57.86
2016-12-29T02:03:41.476Z,57.76
2016-12-29T02:04:50.195Z,57.86
2016-12-29T02:05:58.880Z,57.76
2016-12-29T02:07:07.952Z,58.14
2016-12-29T02:08:16.623Z,58.24
2016-12-29T02:11:07.242Z,57.57
2016-12-29T02:12:16.468Z,57.76
2016-12-29T02:13:25.552Z,57.48
2016-12-29T02:14:34.623Z,58.02
2016-12-29T02:15:43.745Z,58.02
2016-12-29T02:16:53.102Z,57.82
2016-12-29T02:18:02.856Z,57.92
2016-12-29T02:19:12.315Z,57.73
2016-12-29T02:20:21.418Z,57.92
2016-12-29T02:21:30.492Z,58.02
2016-12-29T02:22:39.963Z,57.64
2016-12-29T02:23:49.378Z,58.02
2016-12-29T02:24:58.066Z,57.54
2016-12-29T02:26:07.137Z,57.92
2016-12-29T02:27:17.004Z,57.73
2016-12-29T02:28:26.070Z,57.64
2016-12-29T02:29:35.671Z,57.54
2016-12-29T02:30:45.120Z,57.54
2016-12-29T02:31:54.221Z,57.16
2016-12-29T02:33:03.690Z,56.97
2016-12-29T02:34:12.780Z,57.26
2016-12-29T02:35:22.544Z,57.35
2016-12-29T02:36:31.232Z,56.97
2016-12-29T02:37:41.071Z,57.16
2016-12-29T02:38:49.754Z,57.07
2016-12-29T02:39:58.835Z,57.35
2016-12-29T02:41:08.208Z,57.07
2016-12-29T02:42:18.063Z,56.97
2016-12-29T02:43:27.518Z,56.49
2016-12-29T02:44:36.971Z,56.68
2016-12-29T02:45:46.036Z,57.07
2016-12-29T02:46:55.103Z,57.26
2016-12-29T02:48:04.566Z,56.87
2016-12-29T02:49:13.240Z,57.26
2016-12-29T02:50:22.688Z,57.16
2016-12-29T02:51:32.144Z,57.07
2016-12-29T02:52:41.599Z,56.87
2016-12-29T02:53:50.271Z,57.16
2016-12-29T02:54:59.724Z,57.07
2016-12-29T02:56:08.814Z,56.68
2016-12-29T02:57:17.902Z,56.87
2016-12-29T02:58:26.878Z,57.26
2016-12-29T02:59:35.573Z,56.94
2016-12-29T03:00:45.040Z,57.04
2016-12-29T03:01:53.727Z,57.89
2016-12-29T03:03:02.410Z,56.94
2016-12-29T03:04:11.486Z,56.65
2016-12-29T03:05:20.936Z,56.4
2016-12-29T03:06:30.004Z,56.4
2016-12-29T03:07:39.080Z,55.83
2016-12-29T03:08:48.579Z,56.11
2016-12-29T03:09:58.781Z,55.92
2016-12-29T03:11:08.243Z,55.44
2016-12-29T03:12:16.918Z,55.54
2016-12-29T03:13:26.011Z,55.35
2016-12-29T03:14:34.693Z,55.07
2016-12-29T03:15:44.151Z,55.07
2016-12-29T03:16:53.229Z,54.97
2016-12-29T03:18:02.292Z,54.97
2016-12-29T03:19:11.746Z,54.59
2016-12-29T03:20:21.201Z,55.35
2016-12-29T03:21:30.376Z,54.49
2016-12-29T03:22:39.059Z,54.59
2016-12-29T03:23:47.737Z,55.16
2016-12-29T03:24:56.822Z,54.97
2016-12-29T03:26:05.883Z,54.88
2016-12-29T03:27:16.030Z,54.88
2016-12-29T03:28:24.719Z,54.39
2016-12-29T03:29:33.789Z,54.02
2016-12-29T03:30:42.853Z,54.39
2016-12-29T03:31:52.321Z,53.92
2016-12-29T03:33:01.379Z,53.85
2016-12-29T03:34:10.832Z,53.85
2016-12-29T03:35:20.287Z,53.76
2016-12-29T03:36:29.368Z,53.56
2016-12-29T03:37:38.465Z,53.56
2016-12-29T03:38:47.844Z,54.24
2016-12-29T03:39:56.915Z,53.76
2016-12-29T03:41:05.994Z,54.3
2016-12-29T03:42:15.456Z,53.64
2016-12-29T03:43:24.919Z,54.21
2016-12-29T03:44:33.980Z,53.85
2016-12-29T03:45:43.433Z,53.73
2016-12-29T03:46:52.509Z,53.76
2016-12-29T03:48:01.198Z,53.64
2016-12-29T03:49:09.875Z,54.11
2016-12-29T03:50:20.038Z,54.11
2016-12-29T03:51:29.094Z,54.11
2016-12-29T03:52:37.816Z,53.54
2016-12-29T03:53:46.887Z,53.66
2016-12-29T03:54:56.349Z,53.66
2016-12-29T03:56:05.528Z,53.54
2016-12-29T03:57:14.217Z,53.73
2016-12-29T03:58:22.897Z,53.92
2016-12-29T03:59:31.981Z,53.35
2016-12-29T04:00:41.829Z,53.73
2016-12-29T04:01:51.433Z,53.66
2016-12-29T04:03:00.095Z,53.54
2016-12-29T04:04:09.162Z,53.54
2016-12-29T04:05:18.266Z,53.92
2016-12-29T04:06:27.359Z,54.02
2016-12-29T04:07:36.047Z,53.92
2016-12-29T04:08:45.104Z,53.92
2016-12-29T04:09:54.177Z,54.02
2016-12-29T04:11:04.026Z,54.02
2016-12-29T04:12:13.872Z,54.11
2016-12-29T04:13:22.650Z,53.92
2016-12-29T04:14:31.349Z,54.11
2016-12-29T04:15:40.048Z,54.02
2016-12-29T04:16:49.521Z,53.73
2016-12-29T04:17:58.614Z,53.64
2016-12-29T04:19:08.380Z,53.73
2016-12-29T04:20:17.465Z,53.54
2016-12-29T04:21:26.136Z,53.73
2016-12-29T04:22:35.270Z,53.83
2016-12-29T04:23:44.361Z,53.64
2016-12-29T04:24:53.175Z,53.54
2016-12-29T04:26:02.242Z,53.44
2016-12-29T04:27:11.306Z,53.54
2016-12-29T04:28:20.374Z,52.78
2016-12-29T04:29:29.075Z,51.28
2016-12-29T04:30:38.450Z,50.16
2016-12-29T04:31:47.544Z,48.94
2016-12-29T04:32:56.275Z,47.92
2016-12-29T04:34:05.343Z,46.8
2016-12-29T04:35:14.436Z,45.67
2016-12-29T04:36:23.905Z,45.01
2016-12-29T04:37:32.593Z,43.79
2016-12-29T04:38:42.089Z,43.14
2016-12-29T04:39:51.199Z,42.4
2016-12-29T04:41:00.289Z,41.91
2016-12-29T04:42:09.355Z,41.46
2016-12-29T04:43:18.828Z,41.28
2016-12-29T04:44:28.723Z,40.71
2016-12-29T04:45:38.188Z,40.35
2016-12-29T04:46:46.867Z,40.27
2016-12-29T04:47:55.946Z,39.79
2016-12-29T04:49:05.827Z,39.5
2016-12-29T04:50:14.537Z,38.95
2016-12-29T04:51:23.599Z,39.33
2016-12-29T04:52:33.083Z,38.68
2016-12-29T04:53:42.738Z,39.45
2016-12-29T04:54:51.819Z,40.39
2016-12-29T04:56:00.904Z,41.8
2016-12-29T04:57:09.976Z,43.23
2016-12-29T04:58:18.651Z,44.45
2016-12-29T04:59:27.486Z,45.57
2016-12-29T05:00:36.579Z,46.22
2016-12-29T05:01:46.485Z,46.77
2016-12-29T05:02:55.935Z,48.18
2016-12-29T05:04:04.620Z,49.14
2016-12-29T05:05:13.391Z,49.49
2016-12-29T05:06:22.486Z,50.24
2016-12-29T05:07:31.550Z,50.71
2016-12-29T05:08:40.620Z,51.35
2016-12-29T05:09:49.696Z,52.12
2016-12-29T05:10:59.315Z,52.76
2016-12-29T05:12:08.772Z,52.95
2016-12-29T05:13:17.455Z,53.05
2016-12-29T05:14:26.911Z,53.14
2016-12-29T05:15:35.586Z,53.59
2016-12-29T05:16:44.648Z,53.21
2016-12-29T05:17:53.723Z,53.41
2016-12-29T05:19:03.189Z,53.59
2016-12-29T05:20:11.870Z,53.31
2016-12-29T05:21:21.726Z,53.69
2016-12-29T05:22:30.796Z,53.41
2016-12-29T05:23:39.865Z,53.59
2016-12-29T05:24:49.709Z,53.66
2016-12-29T05:25:59.158Z,54.04
2016-12-29T05:27:09.391Z,54.52
2016-12-29T05:28:18.219Z,53.76
2016-12-29T05:29:26.900Z,54.33
2016-12-29T05:30:35.630Z,54.24
2016-12-29T05:31:44.301Z,54.71
2016-12-29T05:32:52.982Z,53.92
2016-12-29T05:34:02.594Z,54.21
2016-12-29T05:35:12.050Z,54.21
2016-12-29T05:36:21.123Z,53.92
2016-12-29T05:37:30.577Z,54.49
2016-12-29T05:38:40.027Z,54.39
2016-12-29T05:39:49.091Z,55.07
2016-12-29T05:40:58.157Z,54.49
2016-12-29T05:42:06.831Z,54.39
2016-12-29T05:43:15.525Z,54.11
2016-12-29T05:44:24.585Z,54.66
2016-12-29T05:45:34.154Z,54.47
2016-12-29T05:46:42.827Z,54.85
2016-12-29T05:47:52.282Z,55.04
2016-12-29T05:49:00.955Z,55.22
2016-12-29T05:50:09.640Z,54.94
2016-12-29T05:51:19.396Z,54.94
2016-12-29T05:52:28.858Z,54.75
2016-12-29T05:53:38.318Z,54.47
2016-12-29T05:54:46.995Z,54.56
2016-12-29T05:55:56.444Z,54.66
2016-12-29T05:57:05.261Z,53.99
2016-12-29T05:58:15.098Z,53.99
2016-12-29T05:59:24.930Z,54.47
2016-12-29T06:00:33.607Z,53.7
2016-12-29T06:01:43.067Z,53.8
2016-12-29T06:02:52.092Z,54.37
2016-12-29T06:04:01.559Z,53.8
2016-12-29T06:05:10.235Z,54.27
2016-12-29T06:06:19.314Z,54.27
2016-12-29T06:07:27.975Z,54.08
2016-12-29T06:08:37.186Z,53.99
2016-12-29T06:09:46.274Z,53.7
2016-12-29T06:10:55.731Z,53.99
2016-12-29T06:12:04.435Z,53.89
2016-12-29T06:13:13.500Z,54.18
2016-12-29T06:14:22.656Z,54.18
2016-12-29T06:15:31.742Z,53.7
2016-12-29T06:16:41.580Z,54.08
2016-12-29T06:17:50.252Z,53.99
2016-12-29T06:18:59.706Z,53.87
2016-12-29T06:20:09.535Z,54.35
2016-12-29T06:21:18.607Z,53.87
2016-12-29T06:22:28.465Z,54.82
2016-12-29T06:23:37.917Z,53.77
2016-12-29T06:24:46.978Z,54.72
2016-12-29T06:25:55.758Z,53.96
2016-12-29T06:27:05.216Z,54.72
2016-12-29T06:28:14.681Z,54.15
2016-12-29T06:29:23.378Z,54.15
2016-12-29T06:30:32.044Z,54.15
2016-12-29T06:31:40.718Z,54.15
2016-12-29T06:32:49.396Z,54.53
2016-12-29T06:33:59.256Z,54.44
2016-12-29T06:35:08.309Z,54.13
2016-12-29T06:36:17.370Z,53.96
2016-12-29T06:37:26.398Z,54.13
2016-12-29T06:38:35.849Z,54.13
2016-12-29T06:39:44.559Z,54.13
2016-12-29T06:40:53.232Z,54.03
2016-12-29T06:42:01.942Z,54.03
2016-12-29T06:43:11.236Z,54.03
2016-12-29T06:44:20.324Z,54.03
2016-12-29T06:45:29.382Z,53.94
2016-12-29T06:46:39.251Z,53.94
2016-12-29T06:47:48.703Z,53.84
2016-12-29T06:48:57.767Z,54.13
2016-12-29T06:50:07.224Z,54.41
2016-12-29T06:51:15.898Z,54.32
2016-12-29T06:52:25.349Z,54.41
2016-12-29T06:53:34.405Z,54.6
2016-12-29T06:54:43.466Z,54.03
2016-12-29T06:55:52.134Z,54.03
2016-12-29T06:57:01.213Z,54.03
2016-12-29T06:58:10.271Z,54.03
2016-12-29T06:59:18.932Z,53.94
2016-12-29T07:00:28.683Z,53.84
2016-12-29T07:01:38.134Z,53.94
2016-12-29T07:02:48.394Z,53.75
2016-12-29T07:03:57.839Z,54.13
2016-12-29T07:05:06.512Z,54.03
2016-12-29T07:06:15.582Z,53.55
2016-12-29T07:07:24.652Z,53.36
2016-12-29T07:08:33.322Z,53.65
2016-12-29T07:09:42.000Z,53.65
2016-12-29T07:10:51.461Z,53.36
2016-12-29T07:12:00.238Z,52.8
2016-12-29T07:13:10.067Z,53.11
2016-12-29T07:14:19.515Z,52.92
2016-12-29T07:15:29.366Z,52.63
2016-12-29T07:16:38.041Z,52.63
2016-12-29T07:17:46.719Z,53.01
2016-12-29T07:18:56.566Z,53.46
2016-12-29T07:20:06.016Z,53.55
2016-12-29T07:23:47.594Z,53.55
2016-12-29T07:24:56.683Z,52.89
2016-12-29T07:26:05.758Z,52.98
2016-12-29T07:27:15.220Z,52.8
2016-12-29T07:28:24.680Z,52.89
2016-12-29T07:29:34.085Z,53.46
2016-12-29T07:30:43.151Z,53.46
2016-12-29T07:31:52.219Z,52.7
2016-12-29T07:33:01.676Z,52.32
2016-12-29T07:34:11.928Z,52.51
2016-12-29T07:35:21.136Z,52.7
2016-12-29T07:36:29.816Z,52.8
2016-12-29T07:37:38.491Z,52.7
2016-12-29T07:38:48.376Z,52.8
2016-12-29T07:39:57.439Z,52.89
2016-12-29T07:41:07.591Z,52.8
2016-12-29T07:42:17.038Z,52.61
2016-12-29T07:43:27.306Z,52.8
2016-12-29T07:44:35.985Z,52.41
2016-12-29T07:45:45.460Z,51.93
2016-12-29T07:46:54.946Z,51.78
2016-12-29T07:48:03.654Z,51.68
2016-12-29T07:49:12.729Z,51.39
2016-12-29T07:50:22.092Z,51.1
2016-12-29T07:51:30.783Z,51.2
2016-12-29T07:52:39.965Z,51.3
2016-12-29T07:53:49.037Z,50.73
2016-12-29T07:54:57.708Z,51.2
2016-12-29T07:56:07.178Z,51.1
2016-12-29T07:57:16.242Z,51.1
2016-12-29T07:58:25.669Z,51.01
2016-12-29T07:59:35.511Z,50.92
2016-12-29T08:00:44.962Z,51.3
2016-12-29T08:01:54.015Z,51.1
2016-12-29T08:03:03.477Z,51.1
2016-12-29T08:04:12.255Z,51.2
2016-12-29T08:05:21.334Z,51.2
2016-12-29T08:06:30.451Z,51.2
2016-12-29T08:07:39.524Z,50.73
2016-12-29T08:08:48.589Z,50.73
2016-12-29T08:09:58.193Z,50.73
2016-12-29T08:11:06.871Z,50.35
2016-12-29T08:12:16.329Z,50.54
2016-12-29T08:13:24.998Z,50.35
2016-12-29T08:14:33.676Z,50.35
2016-12-29T08:15:43.315Z,50.25
2016-12-29T08:16:52.388Z,50.54
2016-12-29T08:18:01.841Z,50.25
2016-12-29T08:19:11.290Z,50.63
2016-12-29T08:20:19.969Z,50.25
2016-12-29T08:21:29.393Z,50.54
2016-12-29T08:22:38.853Z,50.54
2016-12-29T08:23:48.607Z,50.63
2016-12-29T08:24:57.725Z,50.15
2016-12-29T08:26:07.593Z,50.44
2016-12-29T08:27:16.951Z,50.44
2016-12-29T08:28:25.643Z,50.44
2016-12-29T08:29:34.707Z,50.44
2016-12-29T08:30:44.899Z,50.35
2016-12-29T08:31:53.583Z,49.87
2016-12-29T08:33:02.799Z,50.15
2016-12-29T08:34:11.468Z,50.54
2016-12-29T08:35:20.557Z,50.25
2016-12-29T08:36:29.237Z,50.92
2016-12-29T08:37:38.295Z,51.3
2016-12-29T08:38:47.910Z,51.01
2016-12-29T08:39:56.964Z,51.1
2016-12-29T08:41:06.025Z,51.01
2016-12-29T08:42:14.706Z,51.01
2016-12-29T08:43:24.162Z,50.44
2016-12-29T08:44:33.374Z,50.63
2016-12-29T08:45:42.063Z,50.73
2016-12-29T08:46:50.740Z,50.35
2016-12-29T08:47:59.809Z,50.92
2016-12-29T08:49:08.494Z,50.54
2016-12-29T08:50:17.858Z,50.35
2016-12-29T08:51:27.375Z,50.15
2016-12-29T08:52:36.059Z,50.06
2016-12-29T08:53:44.763Z,49.96
2016-12-29T08:54:53.847Z,50.06
2016-12-29T08:56:03.857Z,50.15
2016-12-29T08:57:12.542Z,50.06
2016-12-29T08:58:21.615Z,50.06
2016-12-29T08:59:30.293Z,49.51
2016-12-29T09:00:39.762Z,48.37
2016-12-29T09:01:49.136Z,47.06
2016-12-29T09:02:58.586Z,45.65
2016-12-29T09:04:07.655Z,44.82
2016-12-29T09:05:17.113Z,43.89
2016-12-29T09:06:26.172Z,42.86
2016-12-29T09:07:34.996Z,41.81
2016-12-29T09:08:44.475Z,41.35
2016-12-29T09:09:53.161Z,40.32
2016-12-29T09:11:02.615Z,39.96
2016-12-29T09:12:11.286Z,38.93
2016-12-29T09:13:19.961Z,39.22
2016-12-29T09:14:29.028Z,38.37
2016-12-29T09:15:38.097Z,37.99
2016-12-29T09:16:47.161Z,37.63
2016-12-29T09:17:56.219Z,37.36
2016-12-29T09:19:05.594Z,36.98
2016-12-29T09:20:14.664Z,36.9
2016-12-29T09:21:23.742Z,36.8
2016-12-29T09:22:32.420Z,36.44
2016-12-29T09:23:41.895Z,36.44
2016-12-29T09:24:50.734Z,36.24
2016-12-29T09:25:59.410Z,35.97
2016-12-29T09:27:08.525Z,35.97
2016-12-29T09:28:17.646Z,35.71
2016-12-29T09:29:26.710Z,35.8
2016-12-29T09:30:35.787Z,35.32
2016-12-29T09:31:44.482Z,35.43
2016-12-29T09:32:53.973Z,35.24
2016-12-29T09:34:03.431Z,35.24
2016-12-29T09:35:12.506Z,35.36
2016-12-29T09:36:21.886Z,35.36
2016-12-29T09:37:31.352Z,35.36
2016-12-29T09:38:40.070Z,35.16
2016-12-29T09:39:49.171Z,35.45
2016-12-29T09:40:58.638Z,35.18
2016-12-29T09:42:07.730Z,35.18
2016-12-29T09:43:16.872Z,35.18
2016-12-29T09:44:25.961Z,35.08
2016-12-29T09:45:34.768Z,35.1
2016-12-29T09:46:43.844Z,35.1
2016-12-29T09:47:53.040Z,35
2016-12-29T09:49:02.121Z,35
2016-12-29T09:50:11.221Z,35
2016-12-29T09:51:20.301Z,35.12
2016-12-29T09:52:30.182Z,34.83
2016-12-29T09:53:39.649Z,34.92
2016-12-29T09:54:48.731Z,35.12
2016-12-29T09:55:58.227Z,35.04
2016-12-29T09:57:07.717Z,35.14
2016-12-29T09:58:18.377Z,35.04
2016-12-29T09:59:27.607Z,35.06
2016-12-29T10:00:37.102Z,35.16
2016-12-29T10:01:46.963Z,35.16
2016-12-29T10:02:56.050Z,35.16
2016-12-29T10:04:05.541Z,35.16
2016-12-29T10:05:14.848Z,35.27
2016-12-29T10:06:23.924Z,35.17
2016-12-29T10:07:32.988Z,35.27
2016-12-29T10:08:42.460Z,35.17
2016-12-29T10:09:51.144Z,35.17
2016-12-29T10:10:59.941Z,35
2016-12-29T10:12:08.631Z,35
2016-12-29T10:13:18.150Z,35.1
2016-12-29T10:14:26.878Z,35.1
2016-12-29T10:15:36.770Z,35.1
2016-12-29T10:16:46.195Z,35.02
2016-12-29T10:17:55.295Z,35.21
2016-12-29T10:19:03.996Z,35.11
2016-12-29T10:20:13.517Z,35.3
2016-12-29T10:21:22.210Z,35.02
2016-12-29T10:22:31.650Z,35.5
2016-12-29T10:23:40.371Z,35.4
2016-12-29T10:24:49.832Z,35.5
2016-12-29T10:25:58.924Z,35.78
2016-12-29T10:27:08.000Z,35.98
2016-12-29T10:28:17.466Z,35.88
2016-12-29T10:29:26.568Z,36.27
2016-12-29T10:30:35.259Z,36.36
2016-12-29T10:31:43.956Z,36.27
2016-12-29T10:32:53.861Z,36.46
2016-12-29T10:34:03.312Z,36.67
2016-12-29T10:35:12.393Z,36.65
2016-12-29T10:36:21.462Z,36.96
2016-12-29T10:37:30.172Z,36.77
2016-12-29T10:38:38.864Z,36.96
2016-12-29T10:39:47.940Z,37.06
2016-12-29T10:40:57.014Z,36.96
2016-12-29T10:42:06.107Z,37.06
2016-12-29T10:43:15.567Z,36.96
2016-12-29T10:44:25.067Z,37.06
2016-12-29T10:45:34.262Z,37.25
2016-12-29T10:46:44.120Z,37.25
2016-12-29T10:47:53.196Z,37.06
2016-12-29T10:49:02.272Z,36.98
2016-12-29T10:50:11.749Z,37.27
2016-12-29T10:51:21.600Z,37.37
2016-12-29T10:52:31.058Z,37.56
2016-12-29T10:53:40.130Z,37.65
2016-12-29T10:54:48.810Z,37.75
2016-12-29T10:55:57.906Z,37.85
2016-12-29T10:57:06.744Z,37.65
2016-12-29T10:58:15.824Z,37.65
2016-12-29T10:59:24.902Z,37.85
2016-12-29T11:00:34.776Z,38.23
2016-12-29T11:01:43.506Z,38.33
2016-12-29T11:02:52.505Z,38.33
2016-12-29T11:04:01.587Z,38.04
2016-12-29T11:05:10.676Z,38.53
2016-12-29T11:06:20.144Z,38.62
2016-12-29T11:07:28.826Z,38.81
2016-12-29T11:08:37.903Z,39.49
2016-12-29T11:09:46.584Z,39.28
2016-12-29T11:10:55.268Z,39.57
2016-12-29T11:12:04.728Z,39.47
2016-12-29T11:13:13.804Z,39.66
2016-12-29T11:14:22.993Z,39.76
2016-12-29T11:15:32.071Z,40.24
2016-12-29T11:16:41.930Z,40.34
2016-12-29T11:17:51.004Z,40.34
2016-12-29T11:18:59.682Z,40.53
2016-12-29T11:20:09.164Z,40.72
2016-12-29T11:21:17.858Z,41.28
2016-12-29T11:22:26.554Z,41.96
2016-12-29T11:23:35.976Z,42.13
2016-12-29T11:24:45.909Z,43.37
2016-12-29T11:25:54.781Z,44.31
2016-12-29T11:27:04.267Z,44.59
2016-12-29T11:28:13.345Z,44.96
2016-12-29T11:29:22.040Z,45.51
2016-12-29T11:30:30.734Z,46.26
2016-12-29T11:31:39.525Z,46.26
2016-12-29T11:32:48.222Z,46.64
2016-12-29T11:33:57.313Z,46.43
2016-12-29T11:35:06.073Z,46.53
2016-12-29T11:36:15.599Z,46.62
2016-12-29T11:37:25.093Z,46.72
2016-12-29T11:38:34.565Z,46.14
2016-12-29T11:39:43.385Z,46.45
2016-12-29T11:40:52.864Z,45.87
2016-12-29T11:42:01.934Z,46.26
2016-12-29T11:43:11.529Z,45.87
2016-12-29T11:44:20.607Z,45.78
2016-12-29T11:45:29.320Z,45.39
2016-12-29T11:46:38.006Z,45.49
2016-12-29T11:47:46.718Z,45.2
2016-12-29T11:48:55.846Z,45.68
2016-12-29T11:50:04.725Z,45.42
2016-12-29T11:51:14.946Z,45.1
2016-12-29T11:52:24.625Z,45.03
2016-12-29T11:53:34.210Z,45.13
2016-12-29T11:54:43.445Z,45.51
2016-12-29T11:55:52.537Z,45.13
2016-12-29T11:57:01.805Z,44.93
2016-12-29T11:58:10.480Z,44.93
2016-12-29T11:59:19.169Z,44.84
2016-12-29T12:00:28.814Z,44.74
2016-12-29T12:01:37.990Z,44.74
2016-12-29T12:02:47.470Z,44.84
2016-12-29T12:03:56.564Z,44.93
2016-12-29T12:05:05.837Z,44.74
2016-12-29T12:06:15.016Z,44.96
2016-12-29T12:07:24.131Z,44.84
2016-12-29T12:08:33.021Z,44.84
2016-12-29T12:09:42.871Z,44.93
2016-12-29T12:10:51.918Z,44.84
2016-12-29T12:12:00.709Z,44.93
2016-12-29T12:13:09.825Z,44.74
2016-12-29T12:14:19.366Z,44.84
2016-12-29T12:15:28.842Z,44.86
2016-12-29T12:16:38.330Z,44.93
2016-12-29T12:17:47.073Z,44.96
2016-12-29T12:18:56.145Z,44.86
2016-12-29T12:20:06.452Z,44.96
2016-12-29T12:21:15.147Z,44.67
2016-12-29T12:22:24.236Z,44.96
2016-12-29T12:23:33.803Z,44.86
2016-12-29T12:24:42.878Z,44.96
2016-12-29T12:25:51.606Z,44.76
2016-12-29T12:27:01.104Z,45.05
2016-12-29T12:28:10.565Z,44.76
2016-12-29T12:29:19.352Z,44.86
2016-12-29T12:30:28.849Z,44.67
2016-12-29T12:31:37.997Z,44.67
2016-12-29T12:32:47.075Z,44.76
2016-12-29T12:33:56.140Z,44.57
2016-12-29T12:35:05.186Z,44.86
2016-12-29T12:36:13.895Z,44.86
2016-12-29T12:37:22.981Z,45.15
2016-12-29T12:38:32.842Z,45.05
2016-12-29T12:39:42.303Z,45.15
2016-12-29T12:40:51.195Z,45.15
2016-12-29T12:42:00.275Z,45.15
2016-12-29T12:43:09.010Z,45.15
2016-12-29T12:44:17.706Z,45.25
2016-12-29T12:45:26.797Z,45.15
2016-12-29T12:46:36.173Z,45.63
2016-12-29T12:47:45.249Z,45.15
2016-12-29T12:48:55.182Z,45.15
2016-12-29T12:50:04.253Z,45.05
2016-12-29T12:51:13.473Z,45.15
2016-12-29T12:52:22.747Z,45.15
2016-12-29T12:53:31.854Z,45.25
2016-12-29T12:54:40.560Z,45.05
2016-12-29T12:55:50.057Z,45.34
2016-12-29T12:56:59.246Z,45.83
2016-12-29T12:58:08.749Z,45.83
2016-12-29T12:59:17.828Z,45.73
2016-12-29T13:00:26.521Z,45.73
2016-12-29T13:01:35.223Z,45.83
2016-12-29T13:02:43.904Z,45.63
2016-12-29T13:03:53.285Z,45.34
2016-12-29T13:05:02.422Z,45.34
2016-12-29T13:06:11.585Z,45.44
2016-12-29T13:07:21.083Z,45.34
2016-12-29T13:08:29.838Z,45.53
2016-12-29T13:09:39.250Z,45.53
2016-12-29T13:10:47.996Z,45.44
2016-12-29T13:11:58.189Z,45.63
2016-12-29T13:13:07.299Z,46.01
2016-12-29T13:14:16.389Z,45.73
2016-12-29T13:15:25.614Z,46.01
2016-12-29T13:16:35.084Z,45.92
2016-12-29T13:17:44.904Z,46.01
2016-12-29T13:18:54.071Z,46.01
2016-12-29T13:20:03.941Z,45.44
2016-12-29T13:21:13.411Z,45.63
2016-12-29T13:22:22.527Z,45.73
2016-12-29T13:23:31.644Z,45.83
2016-12-29T13:24:40.321Z,46.11
2016-12-29T13:25:49.395Z,46.21
2016-12-29T13:26:58.906Z,46.31
2016-12-29T13:28:08.792Z,46.31
2016-12-29T13:29:18.270Z,46.21
2016-12-29T13:30:27.348Z,46.21
2016-12-29T13:31:36.852Z,46.11
2016-12-29T13:32:45.844Z,46.21
2016-12-29T13:33:54.921Z,46.4
2016-12-29T13:35:04.388Z,46.59
2016-12-29T13:36:14.250Z,46.31
2016-12-29T13:37:23.387Z,46.31
2016-12-29T13:38:32.491Z,46.31
2016-12-29T13:39:41.955Z,46.31
2016-12-29T13:40:51.752Z,46.5
2016-12-29T13:42:01.213Z,46.4
2016-12-29T13:43:10.287Z,46.59
2016-12-29T13:44:19.720Z,46.5
2016-12-29T13:45:28.407Z,46.69
2016-12-29T13:46:37.113Z,46.59
2016-12-29T13:47:46.179Z,47.36
2016-12-29T13:48:54.862Z,46.98
2016-12-29T13:50:03.898Z,47.17
2016-12-29T13:51:13.372Z,46.98
2016-12-29T13:52:22.850Z,46.98
2016-12-29T13:53:31.925Z,46.98
2016-12-29T13:54:40.620Z,47.17
2016-12-29T13:55:50.004Z,47.17
2016-12-29T13:56:59.125Z,47.27
2016-12-29T13:58:07.826Z,47.17
2016-12-29T13:59:17.294Z,46.88
2016-12-29T14:00:26.764Z,47.27
2016-12-29T14:01:36.613Z,47.17
2016-12-29T14:02:45.310Z,46.98
2016-12-29T14:03:54.415Z,47.36
2016-12-29T14:05:03.876Z,48.61
2016-12-29T14:06:13.419Z,49.65
2016-12-29T14:07:22.460Z,50.46
2016-12-29T14:08:31.134Z,51.33
2016-12-29T14:09:40.628Z,52.36
2016-12-29T14:10:50.093Z,53.11
2016-12-29T14:11:59.167Z,53.85
2016-12-29T14:13:08.728Z,54.21
2016-12-29T14:14:17.796Z,54.88
2016-12-29T14:15:27.643Z,55.42
2016-12-29T14:16:36.324Z,55.8
2016-12-29T14:17:45.486Z,56.45
2016-12-29T14:18:54.173Z,56.64
2016-12-29T14:20:02.871Z,57.19
2016-12-29T14:21:11.562Z,57.57
2016-12-29T14:22:21.024Z,57.86
2016-12-29T14:23:30.493Z,58.4
2016-12-29T14:24:40.119Z,58.69
2016-12-29T14:25:49.591Z,58.66
2016-12-29T14:26:58.665Z,58.76
2016-12-29T14:28:08.136Z,59.05
2016-12-29T14:29:17.229Z,59.33
2016-12-29T14:30:26.213Z,59.49
2016-12-29T14:31:35.365Z,59.3
2016-12-29T14:32:44.831Z,59.3
2016-12-29T14:33:53.927Z,59.88
2016-12-29T14:35:02.998Z,59.66
2016-12-29T14:36:13.011Z,59.84
2016-12-29T14:37:21.700Z,59.56
2016-12-29T14:38:30.428Z,59.47
2016-12-29T14:39:39.130Z,59.56
2016-12-29T14:40:47.916Z,59.75
2016-12-29T14:41:57.388Z,59.56
2016-12-29T14:43:06.858Z,59.37
2016-12-29T14:44:15.537Z,59.27
2016-12-29T14:45:24.604Z,59.24
2016-12-29T14:46:33.678Z,59.24
2016-12-29T14:47:43.105Z,59.24
2016-12-29T14:48:52.559Z,58.95
2016-12-29T14:50:02.017Z,58.76
2016-12-29T14:51:11.088Z,59.05
2016-12-29T14:52:20.165Z,58.58
2016-12-29T14:53:29.594Z,59.05
2016-12-29T14:54:39.059Z,58.95
2016-12-29T14:55:48.131Z,58.86
2016-12-29T14:56:56.896Z,58.67
2016-12-29T14:58:06.364Z,59.12